CheckWX is a tool to help pilots better visualize weather data.  It is not intended as a substitute for an official pre-flight weather briefing.

18:50:14 UTC

2A0 METAR
Mark Anton Airport
Dayton, Tennessee, USA
Current

15 mins ago

K2A0 191835Z AUTO 00000KT 10SM CLR 33/24 A3005 RMK A01
Observed
Jul-19 @ 18:35 UTC
Visibility
10 SM
Flight Rules
VFR
Cloud Levels
  • Clear skies
Temperature
33°C / 91°F
Dewpoint
24°C / 75°F
Heat Index
39°C / 102°F
Humidity
59%
Altimeter
30.05" Hg
Pressure
1017.62 hPa
Previous

35 mins ago

K2A0 191815Z AUTO 00000KT 10SM FEW050 32/24 A3005 RMK A01
Observed
Jul-19 @ 18:15 UTC
Visibility
10 SM
Flight Rules
VFR
Cloud Levels
  • Few at 5,000' AGL
Temperature
32°C / 90°F
Dewpoint
24°C / 75°F
Heat Index
38°C / 101°F
Humidity
63%
Altimeter
30.05" Hg
Pressure
1017.62 hPa
Previous

55 mins ago

K2A0 191755Z AUTO VRB03KT 10SM SCT050 SCT060 31/24 A3006 RMK A01
Observed
Jul-19 @ 17:55 UTC
Wind
  • Variable at 3 KTS
Visibility
10 SM
Flight Rules
VFR
Cloud Levels
  • Scattered at 5,000' AGL
  • Scattered at 6,000' AGL
Temperature
31°C / 88°F
Dewpoint
24°C / 75°F
Heat Index
37°C / 98°F
Humidity
66%
Altimeter
30.06" Hg
Pressure
1017.92 hPa